createdAt,value
2018-01-06T00:01:19.168Z,7.59
2018-01-06T00:03:47.440Z,7.63
2018-01-06T00:06:15.754Z,7.56
2018-01-06T00:08:44.078Z,7.57
2018-01-06T00:11:12.399Z,7.49
2018-01-06T00:13:40.697Z,7.58
2018-01-06T00:16:08.983Z,7.67
2018-01-06T00:18:37.243Z,7.61
2018-01-06T00:21:05.542Z,7.53
2018-01-06T00:23:33.856Z,7.54
2018-01-06T00:26:02.172Z,7.54
2018-01-06T00:28:31.275Z,7.53
2018-01-06T00:30:59.532Z,7.48
2018-01-06T00:33:27.833Z,7.48
2018-01-06T00:35:56.116Z,7.44
2018-01-06T00:38:25.190Z,7.49
2018-01-06T00:40:53.428Z,7.43
2018-01-06T00:43:21.695Z,7.38
2018-01-06T00:45:49.993Z,7.39
2018-01-06T00:48:18.311Z,7.37
2018-01-06T00:50:47.383Z,7.37
2018-01-06T00:53:15.640Z,7.33
2018-01-06T00:55:43.932Z,7.37
2018-01-06T00:58:12.211Z,7.38
2018-01-06T01:00:40.468Z,7.39
2018-01-06T01:03:08.723Z,7.35
2018-01-06T01:05:36.996Z,7.37
2018-01-06T01:08:05.243Z,7.36
2018-01-06T01:10:34.288Z,7.48
2018-01-06T01:13:02.549Z,7.38
2018-01-06T01:15:31.588Z,7.38
2018-01-06T01:17:59.843Z,7.40
2018-01-06T01:20:28.106Z,7.35
2018-01-06T01:22:56.350Z,7.33
2018-01-06T01:25:24.602Z,7.40
2018-01-06T01:27:53.626Z,7.41
2018-01-06T01:30:21.891Z,7.39
2018-01-06T01:32:50.917Z,7.40
2018-01-06T01:35:19.955Z,7.45
2018-01-06T01:37:48.200Z,7.34
2018-01-06T01:40:17.228Z,7.32
2018-01-06T01:42:45.499Z,7.28
2018-01-06T01:45:14.515Z,7.33
2018-01-06T01:47:42.787Z,7.25
2018-01-06T01:50:11.816Z,7.24
2018-01-06T01:52:40.072Z,7.20
2018-01-06T01:55:08.333Z,7.23
2018-01-06T01:57:36.602Z,7.25
2018-01-06T02:00:04.879Z,7.25
2018-01-06T02:02:33.132Z,7.20
2018-01-06T02:05:01.404Z,7.25
2018-01-06T02:07:29.661Z,7.25
2018-01-06T02:09:57.915Z,7.25
2018-01-06T02:12:26.936Z,7.23
2018-01-06T02:14:55.195Z,7.21
2018-01-06T02:17:24.208Z,7.25
2018-01-06T02:19:52.467Z,7.25
2018-01-06T02:22:20.709Z,7.27
2018-01-06T02:24:48.980Z,7.25
2018-01-06T02:27:17.980Z,7.18
2018-01-06T02:29:47.017Z,7.26
2018-01-06T02:32:15.368Z,7.29
2018-01-06T02:34:43.616Z,7.29
2018-01-06T02:37:11.895Z,7.26
2018-01-06T02:39:40.152Z,7.32
2018-01-06T02:42:09.182Z,7.28
2018-01-06T02:44:37.441Z,7.31
2018-01-06T02:47:06.468Z,7.25
2018-01-06T02:49:34.735Z,7.23
2018-01-06T02:52:03.761Z,7.28
2018-01-06T02:54:32.051Z,7.21
2018-01-06T02:57:00.316Z,7.19
2018-01-06T02:59:29.337Z,7.21
2018-01-06T03:01:58.545Z,7.20
2018-01-06T03:04:27.569Z,7.16
2018-01-06T03:06:55.830Z,7.19
2018-01-06T03:09:24.843Z,7.23
2018-01-06T03:11:53.919Z,7.29
2018-01-06T03:14:22.168Z,7.27
2018-01-06T03:16:50.435Z,7.30
2018-01-06T03:19:19.449Z,7.29
2018-01-06T03:21:47.723Z,7.33
2018-01-06T03:24:16.746Z,7.33
2018-01-06T03:26:45.012Z,7.35
2018-01-06T03:29:14.037Z,7.36
2018-01-06T03:31:43.055Z,7.28
2018-01-06T03:34:11.304Z,7.21
2018-01-06T03:36:39.624Z,7.18
2018-01-06T03:39:08.641Z,7.19
2018-01-06T03:41:36.912Z,7.14
2018-01-06T03:44:05.933Z,7.10
2018-01-06T03:46:34.196Z,7.09
2018-01-06T03:49:03.208Z,7.05
2018-01-06T03:51:32.259Z,7.10
2018-01-06T03:54:00.504Z,7.06
2018-01-06T03:56:29.542Z,6.99
2018-01-06T03:58:57.788Z,6.96
2018-01-06T04:01:26.900Z,6.97
2018-01-06T04:03:55.912Z,7.01
2018-01-06T04:06:24.924Z,6.97
2018-01-06T04:08:53.952Z,6.98
2018-01-06T04:11:22.208Z,7.02
2018-01-06T04:13:51.236Z,7.08
2018-01-06T04:16:19.520Z,7.08
2018-01-06T04:18:48.549Z,7.01
2018-01-06T04:21:16.802Z,6.93
2018-01-06T04:23:45.824Z,6.91
2018-01-06T04:26:14.084Z,6.95
2018-01-06T04:28:42.344Z,6.95
2018-01-06T04:31:10.621Z,6.90
2018-01-06T04:33:38.880Z,6.85
2018-01-06T04:36:07.180Z,6.71
2018-01-06T04:38:35.451Z,6.70
2018-01-06T04:41:04.477Z,6.71
2018-01-06T04:43:32.732Z,6.73
2018-01-06T04:46:01.768Z,6.78
2018-01-06T04:48:30.027Z,6.80
2018-01-06T04:50:59.047Z,6.87
2018-01-06T04:53:28.072Z,6.85
2018-01-06T04:55:56.320Z,6.86
2018-01-06T04:58:24.594Z,6.80
2018-01-06T05:00:52.835Z,6.75
2018-01-06T05:03:21.104Z,6.76
2018-01-06T05:05:50.128Z,6.77
2018-01-06T05:08:18.420Z,6.71
2018-01-06T05:10:46.668Z,6.69
2018-01-06T05:13:14.927Z,6.66
2018-01-06T05:15:43.185Z,6.63
2018-01-06T05:18:11.447Z,6.61
2018-01-06T05:20:39.723Z,6.66
2018-01-06T05:23:07.975Z,6.63
2018-01-06T05:25:36.236Z,6.58
2018-01-06T05:28:05.282Z,6.65
2018-01-06T05:30:33.531Z,6.64
2018-01-06T05:33:01.820Z,6.63
2018-01-06T05:35:30.834Z,6.69
2018-01-06T05:37:59.089Z,6.68
2018-01-06T05:40:27.338Z,6.62
2018-01-06T05:42:55.594Z,6.58
2018-01-06T05:45:23.863Z,6.53
2018-01-06T05:47:52.877Z,6.56
2018-01-06T05:50:21.908Z,6.59
2018-01-06T05:52:50.157Z,6.54
2018-01-06T05:55:18.419Z,6.53
2018-01-06T05:57:46.668Z,6.50
2018-01-06T06:00:14.938Z,6.56
2018-01-06T06:02:43.957Z,6.53
2018-01-06T06:05:12.235Z,6.50
2018-01-06T06:07:41.276Z,6.50
2018-01-06T06:10:10.296Z,6.50
2018-01-06T06:12:38.543Z,6.41
2018-01-06T06:15:06.808Z,6.40
2018-01-06T06:17:35.051Z,6.37
2018-01-06T06:20:03.330Z,6.41
2018-01-06T06:22:31.576Z,6.41
2018-01-06T06:24:59.842Z,6.38
2018-01-06T06:27:28.097Z,6.37
2018-01-06T06:29:56.374Z,6.32
2018-01-06T06:32:24.637Z,6.32
2018-01-06T06:34:52.907Z,6.31
2018-01-06T06:37:21.156Z,6.27
2018-01-06T06:39:49.432Z,6.27
2018-01-06T06:42:17.685Z,6.33
2018-01-06T06:44:45.948Z,6.38
2018-01-06T06:47:15.036Z,6.32
2018-01-06T06:49:43.251Z,6.24
2018-01-06T06:52:11.532Z,6.32
2018-01-06T06:54:39.812Z,6.35
2018-01-06T06:57:08.080Z,6.41
2018-01-06T06:59:36.320Z,6.40
2018-01-06T07:02:04.620Z,6.40
2018-01-06T07:04:32.875Z,6.46
2018-01-06T07:07:01.144Z,6.55
2018-01-06T07:09:29.399Z,6.50
2018-01-06T07:11:58.421Z,6.54
2018-01-06T07:14:26.672Z,6.50
2018-01-06T07:16:55.079Z,6.51
2018-01-06T07:19:24.095Z,6.55
2018-01-06T07:21:53.147Z,6.56
2018-01-06T07:24:21.390Z,6.60
2018-01-06T07:26:50.421Z,6.60
2018-01-06T07:29:18.662Z,6.80
2018-01-06T07:31:46.921Z,6.67
2018-01-06T07:34:15.153Z,6.60
2018-01-06T07:36:44.210Z,6.55
2018-01-06T07:39:12.480Z,6.53
2018-01-06T07:41:40.744Z,6.58
2018-01-06T07:44:09.760Z,6.61
2018-01-06T07:46:38.796Z,6.61
2018-01-06T07:49:07.816Z,6.65
2018-01-06T07:51:36.092Z,6.70
2018-01-06T07:54:04.344Z,6.73
2018-01-06T07:56:33.966Z,6.79
2018-01-06T07:59:02.990Z,6.80
2018-01-06T08:01:31.266Z,6.85
2018-01-06T08:04:00.280Z,6.92
2018-01-06T08:06:28.541Z,6.92
2018-01-06T08:08:56.792Z,6.94
2018-01-06T08:11:25.084Z,6.94
2018-01-06T08:13:53.343Z,6.95
2018-01-06T08:16:21.621Z,7.01
2018-01-06T08:18:49.871Z,6.98
2018-01-06T08:21:18.140Z,7.03
2018-01-06T08:23:46.396Z,7.09
2018-01-06T08:26:14.762Z,7.12
2018-01-06T08:28:43.012Z,7.17
2018-01-06T08:31:11.304Z,7.17
2018-01-06T08:33:40.333Z,7.12
2018-01-06T08:36:08.713Z,7.11
2018-01-06T08:38:37.033Z,7.13
2018-01-06T08:41:06.269Z,7.18
2018-01-06T08:43:34.531Z,7.16
2018-01-06T08:46:03.556Z,7.19
2018-01-06T08:48:31.843Z,7.21
2018-01-06T08:51:00.872Z,7.21
2018-01-06T08:53:29.136Z,7.25
2018-01-06T08:55:58.145Z,7.29
2018-01-06T08:58:26.656Z,7.35
2018-01-06T09:00:55.689Z,7.34
2018-01-06T09:03:24.398Z,7.38
2018-01-06T09:05:53.058Z,7.43
2018-01-06T09:08:21.379Z,7.44
2018-01-06T09:10:49.850Z,7.53
2018-01-06T09:13:18.468Z,7.58
2018-01-06T09:15:46.899Z,7.60
2018-01-06T09:18:15.272Z,7.55
2018-01-06T09:20:43.576Z,7.69
2018-01-06T09:23:12.307Z,7.68
2018-01-06T09:25:40.680Z,7.64
2018-01-06T09:28:10.144Z,7.76
2018-01-06T09:30:38.893Z,7.90
2018-01-06T09:33:08.526Z,8.00
2018-01-06T09:35:37.750Z,8.11
2018-01-06T09:38:06.584Z,8.35
2018-01-06T09:40:35.125Z,8.40
2018-01-06T09:43:04.140Z,8.53
2018-01-06T09:45:32.720Z,8.48
2018-01-06T09:48:02.208Z,8.76
2018-01-06T09:50:30.939Z,8.78
2018-01-06T09:53:00.530Z,8.65
2018-01-06T09:55:29.087Z,8.65
2018-01-06T09:57:57.904Z,8.64
2018-01-06T10:00:26.187Z,8.82
2018-01-06T10:02:54.725Z,8.79
2018-01-06T10:05:23.323Z,9.00
2018-01-06T10:07:53.564Z,8.92
2018-01-06T10:10:22.229Z,8.97
2018-01-06T10:12:51.211Z,9.28
2018-01-06T10:15:19.802Z,9.38
2018-01-06T10:17:48.295Z,9.36
2018-01-06T10:20:16.697Z,9.48
2018-01-06T10:22:45.076Z,9.61
2018-01-06T10:25:13.432Z,9.76
2018-01-06T10:27:42.870Z,9.82
2018-01-06T10:30:12.691Z,9.82
2018-01-06T10:32:42.091Z,10.36
2018-01-06T10:35:10.523Z,10.50
2018-01-06T10:37:38.991Z,10.74
2018-01-06T10:40:07.411Z,10.72
2018-01-06T10:42:36.763Z,10.51
2018-01-06T10:45:05.105Z,10.01
2018-01-06T10:47:34.868Z,10.19
2018-01-06T10:50:03.226Z,10.08
2018-01-06T10:52:32.883Z,10.13
2018-01-06T10:55:01.507Z,10.04
2018-01-06T10:57:30.196Z,9.73
2018-01-06T10:59:58.543Z,9.99
2018-01-06T11:02:26.914Z,10.11
2018-01-06T11:04:55.599Z,10.11
2018-01-06T11:07:24.038Z,10.17
2018-01-06T11:09:52.739Z,10.00
2018-01-06T11:12:21.064Z,9.90
2018-01-06T11:14:49.537Z,9.94
2018-01-06T11:17:18.259Z,10.01
2018-01-06T11:19:47.014Z,10.26
2018-01-06T11:22:15.402Z,10.29
2018-01-06T11:24:44.703Z,10.22
2018-01-06T11:27:14.047Z,10.28
2018-01-06T11:29:42.456Z,10.44
2018-01-06T11:32:11.307Z,10.91
2018-01-06T11:34:40.544Z,10.54
2018-01-06T11:37:09.696Z,10.51
2018-01-06T11:39:38.355Z,10.58
2018-01-06T11:42:07.086Z,10.75
2018-01-06T11:44:35.620Z,10.86
2018-01-06T11:47:05.065Z,10.74
2018-01-06T11:49:33.639Z,10.53
2018-01-06T11:52:02.730Z,10.54
2018-01-06T11:54:31.150Z,10.65
2018-01-06T11:56:59.927Z,10.58
2018-01-06T11:59:28.576Z,10.57
2018-01-06T12:01:56.991Z,10.72
2018-01-06T12:04:25.700Z,10.70
2018-01-06T12:06:54.410Z,10.83
2018-01-06T12:09:23.166Z,10.77
2018-01-06T12:11:52.656Z,10.95
2018-01-06T12:14:21.274Z,10.81
2018-01-06T12:16:50.581Z,10.73
2018-01-06T12:19:19.090Z,10.78
2018-01-06T12:21:47.495Z,10.83
2018-01-06T12:24:16.137Z,10.71
2018-01-06T12:26:44.999Z,10.85
2018-01-06T12:29:13.833Z,10.88
2018-01-06T12:31:42.353Z,11.05
2018-01-06T12:34:10.788Z,10.67
2018-01-06T12:36:39.745Z,10.74
2018-01-06T12:39:09.353Z,10.97
2018-01-06T12:41:38.872Z,10.87
2018-01-06T12:44:07.418Z,10.89
2018-01-06T12:46:35.917Z,10.85
2018-01-06T12:49:04.577Z,10.56
2018-01-06T12:51:33.729Z,10.55
2018-01-06T12:54:02.984Z,10.68
2018-01-06T12:56:32.898Z,10.79
2018-01-06T12:59:01.827Z,10.66
2018-01-06T13:01:31.381Z,10.63
2018-01-06T13:03:59.964Z,10.65
2018-01-06T13:06:30.523Z,10.64
2018-01-06T13:08:59.353Z,10.75
2018-01-06T13:11:27.837Z,10.74
2018-01-06T13:13:56.267Z,10.79
2018-01-06T13:16:25.414Z,11.14
2018-01-06T13:18:53.914Z,11.51
2018-01-06T13:21:23.526Z,10.83
2018-01-06T13:23:51.841Z,11.13
2018-01-06T13:26:20.613Z,10.86
2018-01-06T13:28:49.244Z,11.06
2018-01-06T13:31:17.846Z,10.99
2018-01-06T13:33:46.238Z,10.85
2018-01-06T13:36:14.768Z,11.07
2018-01-06T13:38:44.948Z,11.07
2018-01-06T13:41:13.436Z,10.96
2018-01-06T13:43:42.768Z,10.75
2018-01-06T13:46:11.416Z,10.79
2018-01-06T13:48:40.179Z,10.80
2018-01-06T13:51:08.791Z,10.71
2018-01-06T13:53:37.680Z,10.85
2018-01-06T13:56:06.305Z,10.91
2018-01-06T13:58:35.477Z,11.02
2018-01-06T14:01:05.279Z,11.19
2018-01-06T14:03:33.585Z,11.04
2018-01-06T14:06:01.836Z,11.10
2018-01-06T14:08:30.128Z,11.04
2018-01-06T14:10:58.396Z,10.97
2018-01-06T14:13:27.461Z,10.99
2018-01-06T14:15:55.728Z,10.81
2018-01-06T14:18:24.120Z,10.81
2018-01-06T14:20:52.436Z,10.78
2018-01-06T14:23:21.505Z,10.66
2018-01-06T14:25:49.764Z,10.66
2018-01-06T14:28:18.843Z,10.66
2018-01-06T14:30:47.100Z,10.55
2018-01-06T14:33:15.372Z,10.53
2018-01-06T14:35:43.639Z,10.53
2018-01-06T14:38:12.683Z,10.43
2018-01-06T14:40:40.984Z,10.36
2018-01-06T14:43:09.299Z,10.29
2018-01-06T14:45:37.613Z,10.18
2018-01-06T14:48:07.211Z,10.08
2018-01-06T14:50:35.462Z,10.08
2018-01-06T14:53:03.716Z,10.02
2018-01-06T14:55:32.805Z,9.97
2018-01-06T14:58:01.071Z,10.03
2018-01-06T15:00:29.398Z,10.01
2018-01-06T15:02:58.423Z,9.97
2018-01-06T15:05:26.742Z,9.98
2018-01-06T15:07:55.040Z,9.93
2018-01-06T15:10:23.345Z,9.92
2018-01-06T15:12:51.595Z,9.88
2018-01-06T15:15:19.846Z,9.82
2018-01-06T15:17:48.858Z,9.72
2018-01-06T15:20:17.905Z,9.66
2018-01-06T15:22:46.160Z,9.56
2018-01-06T15:25:15.261Z,9.53
2018-01-06T15:27:44.345Z,9.45
2018-01-06T15:30:12.613Z,9.32
2018-01-06T15:32:40.928Z,9.24
2018-01-06T15:35:09.204Z,9.12
2018-01-06T15:37:37.514Z,9.06
2018-01-06T15:40:05.835Z,8.92
2018-01-06T15:42:34.893Z,8.86
2018-01-06T15:45:04.684Z,8.79
2018-01-06T15:47:32.977Z,8.64
2018-01-06T15:50:01.289Z,8.53
2018-01-06T15:52:29.615Z,8.38
2018-01-06T15:54:57.872Z,8.25
2018-01-06T15:57:26.124Z,8.10
2018-01-06T15:59:54.388Z,8.04
2018-01-06T16:02:23.457Z,7.85
2018-01-06T16:04:51.868Z,7.74
2018-01-06T16:07:20.116Z,7.65
2018-01-06T16:09:48.377Z,7.51
2018-01-06T16:12:16.634Z,7.46
2018-01-06T16:14:44.940Z,7.39
2018-01-06T16:17:13.974Z,7.33
2018-01-06T16:19:42.328Z,7.23
2018-01-06T16:22:10.631Z,7.12
2018-01-06T16:24:39.692Z,7.10
2018-01-06T16:27:07.973Z,7.03
2018-01-06T16:29:36.265Z,6.96
2018-01-06T16:32:04.570Z,6.88
2018-01-06T16:34:32.865Z,6.86
2018-01-06T16:37:01.886Z,6.83
2018-01-06T16:39:30.140Z,6.73
2018-01-06T16:41:58.420Z,6.67
2018-01-06T16:44:26.672Z,6.60
2018-01-06T16:46:55.772Z,6.58
2018-01-06T16:49:24.809Z,6.48
2018-01-06T16:51:53.113Z,6.43
2018-01-06T16:54:21.413Z,6.31
2018-01-06T16:56:49.682Z,6.50
2018-01-06T16:59:17.974Z,6.48
2018-01-06T17:01:46.240Z,6.48
2018-01-06T17:04:15.284Z,6.39
2018-01-06T17:06:43.650Z,6.33
2018-01-06T17:09:11.905Z,6.22
2018-01-06T17:11:40.222Z,6.07
2018-01-06T17:14:08.546Z,6.15
2018-01-06T17:16:36.819Z,6.10
2018-01-06T17:19:05.887Z,6.16
2018-01-06T17:21:34.206Z,6.07
2018-01-06T17:24:02.512Z,5.99
2018-01-06T17:26:30.807Z,6.00
2018-01-06T17:28:59.080Z,5.98
2018-01-06T17:31:27.399Z,6.00
2018-01-06T17:33:55.800Z,5.95
2018-01-06T17:36:24.110Z,5.87
2018-01-06T17:38:52.340Z,5.92
2018-01-06T17:41:20.607Z,5.91
2018-01-06T17:43:50.043Z,5.77
2018-01-06T17:46:18.312Z,5.74
2018-01-06T17:48:47.377Z,5.74
2018-01-06T17:51:16.488Z,5.69
2018-01-06T17:53:44.739Z,5.67
2018-01-06T17:56:12.997Z,5.59
2018-01-06T17:58:42.087Z,5.52
2018-01-06T18:01:10.392Z,5.38
2018-01-06T18:03:38.761Z,5.37
2018-01-06T18:06:07.035Z,5.37
2018-01-06T18:08:35.389Z,5.35
2018-01-06T18:11:03.641Z,5.35
2018-01-06T18:13:31.905Z,5.35
2018-01-06T18:16:00.160Z,5.29
2018-01-06T18:18:28.427Z,5.31
2018-01-06T18:20:56.726Z,5.30
2018-01-06T18:23:25.765Z,5.30
2018-01-06T18:25:54.013Z,5.24
2018-01-06T18:28:23.208Z,5.22
2018-01-06T18:30:51.595Z,5.24
2018-01-06T18:33:19.925Z,5.15
2018-01-06T18:35:48.287Z,5.11
2018-01-06T18:38:16.569Z,5.09
2018-01-06T18:40:45.051Z,5.01
2018-01-06T18:43:13.354Z,5.09
2018-01-06T18:45:41.905Z,5.07
2018-01-06T18:48:10.214Z,5.05
2018-01-06T18:50:38.722Z,5.17
2018-01-06T18:53:08.044Z,5.36
2018-01-06T18:55:36.604Z,5.66
2018-01-06T18:58:04.866Z,6.29
2018-01-06T19:00:33.456Z,6.36
2018-01-06T19:03:01.786Z,6.23
2018-01-06T19:05:30.062Z,6.26
2018-01-06T19:07:58.396Z,6.09
2018-01-06T19:10:26.739Z,5.93
2018-01-06T19:12:55.783Z,5.85
2018-01-06T19:15:25.357Z,5.82
2018-01-06T19:17:53.689Z,5.70
2018-01-06T19:20:21.950Z,5.66
2018-01-06T19:22:50.243Z,5.82
2018-01-06T19:25:18.554Z,5.78
2018-01-06T19:27:46.857Z,5.70
2018-01-06T19:30:15.124Z,5.71
2018-01-06T19:32:43.422Z,5.62
2018-01-06T19:35:11.752Z,5.64
2018-01-06T19:37:40.824Z,5.59
2018-01-06T19:40:09.143Z,5.54
2018-01-06T19:42:38.227Z,5.56
2018-01-06T19:45:08.002Z,5.50
2018-01-06T19:47:37.074Z,5.47
2018-01-06T19:50:05.411Z,5.45
2018-01-06T19:52:33.733Z,5.46
2018-01-06T19:55:02.055Z,5.53
2018-01-06T19:57:31.125Z,5.66
2018-01-06T19:59:59.440Z,5.73
2018-01-06T20:02:28.511Z,5.72
2018-01-06T20:04:57.985Z,5.84
2018-01-06T20:07:27.046Z,5.83
2018-01-06T20:09:55.393Z,5.72
2018-01-06T20:12:23.691Z,5.66
2018-01-06T20:14:52.029Z,5.69
2018-01-06T20:17:20.357Z,5.81
2018-01-06T20:19:48.674Z,5.82
2018-01-06T20:22:16.971Z,5.83
2018-01-06T20:24:45.337Z,5.71
2018-01-06T20:27:13.670Z,5.79
2018-01-06T20:29:42.811Z,5.76
2018-01-06T20:32:11.872Z,5.68
2018-01-06T20:34:40.250Z,5.74
2018-01-06T20:37:08.577Z,5.70
2018-01-06T20:39:36.906Z,5.75
2018-01-06T20:42:05.211Z,5.75
2018-01-06T20:44:33.555Z,5.59
2018-01-06T20:47:01.868Z,5.61
2018-01-06T20:49:30.946Z,5.60
2018-01-06T20:51:59.274Z,5.60
2018-01-06T20:54:27.586Z,5.52
2018-01-06T20:56:55.926Z,5.50
2018-01-06T20:59:24.220Z,5.39
2018-01-06T21:01:52.540Z,5.34
2018-01-06T21:04:20.844Z,5.24
2018-01-06T21:06:49.172Z,5.23
2018-01-06T21:09:17.486Z,5.34
2018-01-06T21:11:46.618Z,5.23
2018-01-06T21:14:14.891Z,5.38
2018-01-06T21:16:43.969Z,5.42
2018-01-06T21:19:13.778Z,5.21
2018-01-06T21:21:42.136Z,5.11
2018-01-06T21:24:10.444Z,5.12
2018-01-06T21:26:38.756Z,5.06
2018-01-06T21:29:07.083Z,5.38
2018-01-06T21:31:36.192Z,5.46
2018-01-06T21:34:05.279Z,5.36
2018-01-06T21:36:33.606Z,5.11
2018-01-06T21:39:01.910Z,4.87
2018-01-06T21:41:30.247Z,4.76
2018-01-06T21:43:58.551Z,4.76
2018-01-06T21:46:26.879Z,4.66
2018-01-06T21:48:55.204Z,4.61
2018-01-06T21:51:23.530Z,4.64
2018-01-06T21:53:52.617Z,4.67
2018-01-06T21:56:20.959Z,4.60
2018-01-06T21:58:49.263Z,4.60
2018-01-06T22:01:17.614Z,4.60
2018-01-06T22:03:46.686Z,4.60
2018-01-06T22:06:15.016Z,4.57
2018-01-06T22:08:44.094Z,4.60
2018-01-06T22:11:12.402Z,4.53
2018-01-06T22:13:40.742Z,4.40
2018-01-06T22:16:09.047Z,4.41
2018-01-06T22:18:37.362Z,4.36
2018-01-06T22:21:06.257Z,4.41
2018-01-06T22:23:34.579Z,4.35
2018-01-06T22:26:03.668Z,4.25
2018-01-06T22:28:31.995Z,4.22
2018-01-06T22:31:00.294Z,4.15
2018-01-06T22:33:28.598Z,4.17
2018-01-06T22:35:56.903Z,4.12
2018-01-06T22:38:25.249Z,4.22
2018-01-06T22:40:53.564Z,4.42
2018-01-06T22:43:21.880Z,4.21
2018-01-06T22:45:50.189Z,4.16
2018-01-06T22:48:18.508Z,4.12
2018-01-06T22:50:46.815Z,4.16
2018-01-06T22:53:15.161Z,4.18
2018-01-06T22:55:43.485Z,4.23
2018-01-06T22:58:11.801Z,4.31
2018-01-06T23:00:41.078Z,4.33
2018-01-06T23:03:09.394Z,4.41
2018-01-06T23:05:37.701Z,4.49
2018-01-06T23:08:06.050Z,4.59
2018-01-06T23:10:34.360Z,4.70
2018-01-06T23:13:02.693Z,4.71
2018-01-06T23:15:31.008Z,4.60
2018-01-06T23:18:00.099Z,4.43
2018-01-06T23:20:28.390Z,4.32
2018-01-06T23:22:56.732Z,4.26
2018-01-06T23:25:25.036Z,4.27
2018-01-06T23:27:54.154Z,4.24
2018-01-06T23:30:22.467Z,4.28
2018-01-06T23:32:50.787Z,4.32
2018-01-06T23:35:19.863Z,4.37
2018-01-06T23:37:48.181Z,4.30
2018-01-06T23:40:17.251Z,4.21
2018-01-06T23:42:45.567Z,4.31
2018-01-06T23:45:13.870Z,4.33
2018-01-06T23:47:42.940Z,4.23
2018-01-06T23:50:11.273Z,4.41
2018-01-06T23:52:40.347Z,4.62
2018-01-06T23:55:08.668Z,4.63
2018-01-06T23:57:36.992Z,4.74
